Flight Track Log - Related Links

Times and Time Zones

All times are in EDT time to prevent confusion due to time zone crossing. See the AWE2010 flight status page for this flight to view local times or setup timezone preferences in your user account.

Time Position Orientation Groundspeed Altitude Reporting Facility
EDT Latitude Longitude Course Direction KTS MPH feet Rate Location/Type
Sat 09:41:23 AM 39.8833 -75.2167 180° South 148 170 800  Level Philadelphia TRACON
Sat 09:41:47 AM 39.8667 -75.2000 142° Southeast 156 180 1,500 1,786 Climbing Philadelphia TRACON
Sat 09:42:47 AM 39.8500 -75.1333 108° East 232 267 3,300 2,182 Climbing Philadelphia TRACON
Sat 09:43:48 AM 39.7833 -75.1167 169° South 281 323 5,900 2,750 Climbing Philadelphia TRACON
Sat 09:44:00 AM 39.4570 -75.3310 194° South  Level FlightAware Approximate
Sat 09:45:00 AM 39.3509 -75.3425 185° South  Level FlightAware Approximate
Sat 09:45:35 AM 39.6608 -75.2142 212° Southwest 299 344 11,000  Level Washington Center
Sat 09:46:00 AM 39.2470 -75.3667 180° South  Level FlightAware Approximate
Sat 09:46:36 AM 39.5692 -75.2442 194° South 317 365 12,900  Level Washington Center
Sat 09:47:34 AM 39.4672 -75.2664 190° South 351 404 15,600 1,513 Climbing Washington Center
Sat 09:48:35 AM 39.3631 -75.2883 189° South 366 421 15,900 443 Climbing Washington Center
Sat 09:49:36 AM 39.2569 -75.3103 189° South 384 442 16,500 1,388 Climbing Washington Center
Sat 09:50:36 AM 39.1589 -75.3319 190° South 392 451 18,700 2,136 Climbing Washington Center
Sat 09:51:34 AM 39.0506 -75.3592 191° South 397 457 20,700 1,850 Climbing Washington Center
Sat 09:52:36 AM 38.9361 -75.3836 189° South 409 471 22,400 1,750 Climbing Washington Center
Sat 09:53:34 AM 38.8256 -75.4211 195° South 414 476 24,200 1,729 Climbing Washington Center
Sat 09:54:34 AM 38.7214 -75.4906 207° Southwest 419 482 25,800 893 Climbing Washington Center
Sat 09:55:35 AM 38.6153 -75.5650 209° Southwest 424 488 26,000 98 Climbing Washington Center
Sat 09:56:36 AM 38.5047 -75.6447 209° Southwest 430 495 26,000  Level Washington Center
Sat 09:57:36 AM 38.4003 -75.7161 208° Southwest 436 502 26,000  Level Washington Center
Sat 09:58:34 AM 38.2939 -75.7875 208° Southwest 431 496 26,000  Level Washington Center
Sat 09:59:36 AM 38.1917 -75.8586 209° Southwest 431 496 26,000  Level Washington Center
Sat 10:00:36 AM 38.0872 -75.9294 208° Southwest 431 496 26,000  Level Washington Center
Sat 10:01:34 AM 37.9847 -76.0028 209° Southwest 431 496 26,000  Level Washington Center
Sat 10:02:34 AM 37.8822 -76.0733 209° Southwest 436 502 26,000  Level Washington Center
Sat 10:03:36 AM 37.7756 -76.1461 208° Southwest 436 502 26,000  Level Washington Center
Sat 10:04:36 AM 37.6711 -76.2161 208° Southwest 441 507 26,000  Level Washington Center
Sat 10:05:34 AM 37.5664 -76.2886 209° Southwest 436 502 26,000  Level Washington Center
Sat 10:06:35 AM 37.4617 -76.3583 208° Southwest 436 502 26,000 -148 Level Washington Center
Sat 10:07:36 AM 37.3569 -76.4281 208° Southwest 436 502 25,700 -1,008 Descending Washington Center
Sat 10:08:34 AM 37.2603 -76.5025 212° Southwest 431 496 24,000 -958 Descending Washington Center
Sat 10:09:35 AM 37.1864 -76.6086 229° Southwest 408 470 23,800 -787 Descending Washington Center
Sat 10:10:36 AM 37.1167 -76.7197 232° Southwest 408 470 22,400 -908 Descending Washington Center
Sat 10:11:34 AM 37.0467 -76.8281 231° Southwest 408 470 22,000 -203 Descending Washington Center
Sat 10:12:34 AM 36.9811 -76.9336 232° Southwest 403 464 22,000  Level Washington Center
Sat 10:13:35 AM 36.9108 -77.0389 230° Southwest 403 464 22,000 -393 Level Washington Center
Sat 10:14:36 AM 36.8408 -77.1464 231° Southwest 403 464 21,200 -1,008 Descending Washington Center
Sat 10:15:34 AM 36.7725 -77.2514 231° Southwest 398 458 20,000 -610 Descending Washington Center
Sat 10:16:34 AM 36.7044 -77.3536 230° Southwest 398 458 20,000  Level Washington Center
Sat 10:17:36 AM 36.6403 -77.4556 232° Southwest 398 458 20,000  Level Washington Center
Sat 10:18:36 AM 36.5719 -77.5575 230° Southwest 392 451 20,000  Level Washington Center
Sat 10:19:34 AM 36.5033 -77.6617 231° Southwest 392 451 20,000 -661 Level Washington Center
Sat 10:20:34 AM 36.4347 -77.7658 231° Southwest 392 451 18,700 -1,525 Descending Washington Center
Sat 10:21:36 AM 36.3789 -77.8569 233° Southwest 387 445 16,900 -2,027 Descending Washington Center
Sat 10:21:48 AM 36.3531 -77.8925 228° Southwest 372 428 16,200 -2,066 Descending Washington Center
Sat 10:22:37 AM 36.3058 -77.9633 230° Southwest 356 410 14,800 -1,698 Descending Washington Center
Sat 10:23:34 AM 36.2539 -78.0467 232° Southwest 370 426 13,200 -1,815 Descending Washington Center
Sat 10:24:36 AM 36.1894 -78.1372 229° Southwest 337 388 11,200 -1,574 Descending Washington Center
Sat 10:25:36 AM 36.1544 -78.2133 240° Southwest 302 348 10,000 -1,525 Descending Washington Center
Sat 10:26:34 AM 36.1233 -78.3075 248° West 277 319 8,200 -1,881 Descending Washington Center
Sat 10:27:34 AM 36.1006 -78.3864 250° West 267 307 6,300 -1,438 Descending Washington Center
Sat 10:28:35 AM 36.0758 -78.4653 249° West 255 293 5,300 -1,438 Descending Washington Center
Sat 10:29:35 AM 36.0531 -78.5361 248° West 244 281 3,400 -1,150 Descending Washington Center
Sat 10:30:35 AM 36.0306 -78.6072 249° West 237 273 3,000 -281 Descending Washington Center
Sat 10:31:43 AM 35.9831 -78.6672 226° Southwest 187 215 2,800 -512 Descending Washington Center
Sat 10:32:44 AM 35.9486 -78.7094 225° Southwest 161 185 1,900 -807 Descending Washington Center
Sat 10:33:42 AM 35.9206 -78.7467 227° Southwest 137 158 1,200 -706 Descending Washington Center
Sat 10:34:43 AM 35.8925 -78.7789 223° Southwest 147 169 500 -689 Descending Washington Center

Login

Don't have an account? Register now (free) for customized features, flight alerts, and more!